createdAt,value
2019-02-08T00:03:04.709Z,97942.00
2019-02-08T00:07:08.456Z,97946.59
2019-02-08T00:11:11.910Z,97947.67
2019-02-08T00:15:15.361Z,97953.89
2019-02-08T00:19:18.819Z,97962.81
2019-02-08T00:23:26.695Z,97965.28
2019-02-08T00:27:28.422Z,97974.64
2019-02-08T00:31:31.892Z,97973.20
2019-02-08T00:35:35.347Z,97964.83
2019-02-08T00:39:38.810Z,97974.12
2019-02-08T00:43:42.263Z,97974.41
2019-02-08T00:47:45.721Z,97982.18
2019-02-08T00:51:49.182Z,97979.59
2019-02-08T00:55:52.630Z,97973.47
2019-02-08T00:59:56.085Z,97979.65
2019-02-08T01:03:59.562Z,97976.29
2019-02-08T01:08:03.015Z,97981.88
2019-02-08T01:12:06.454Z,97986.99
2019-02-08T01:16:09.912Z,97992.12
2019-02-08T01:20:13.364Z,97978.55
2019-02-08T01:24:16.817Z,97977.27
2019-02-08T01:28:20.270Z,97972.69
2019-02-08T01:32:23.711Z,97981.04
2019-02-08T01:36:27.166Z,97968.30
2019-02-08T01:40:30.649Z,97974.20
2019-02-08T01:44:34.100Z,97973.55
2019-02-08T01:48:37.560Z,97961.66
2019-02-08T01:52:41.012Z,97960.80
2019-02-08T01:56:44.470Z,97960.22
2019-02-08T02:00:47.924Z,97968.88
2019-02-08T02:04:51.542Z,97963.27
2019-02-08T02:08:55.000Z,97966.48
2019-02-08T02:12:58.451Z,97953.48
2019-02-08T02:17:01.902Z,97966.10
2019-02-08T02:21:05.385Z,97977.05
2019-02-08T02:25:08.829Z,97973.32
2019-02-08T02:29:13.355Z,97976.50
2019-02-08T02:33:16.811Z,97985.00
2019-02-08T02:37:20.258Z,97970.14
2019-02-08T02:41:23.712Z,97975.27
2019-02-08T02:45:27.172Z,97972.26
2019-02-08T02:49:30.614Z,97971.38
2019-02-08T02:53:34.078Z,97965.05
2019-02-08T02:57:37.538Z,97960.88
2019-02-08T03:01:41.005Z,97958.02
2019-02-08T03:05:44.456Z,97963.78
2019-02-08T03:09:47.915Z,97960.44
2019-02-08T03:13:51.382Z,97968.22
2019-02-08T03:17:54.841Z,97978.16
2019-02-08T03:21:58.285Z,97969.52
2019-02-08T03:26:01.740Z,97982.00
2019-02-08T03:30:05.182Z,97978.59
2019-02-08T03:34:08.634Z,97975.14
2019-02-08T03:38:12.102Z,97986.48
2019-02-08T03:42:15.552Z,97977.44
2019-02-08T03:46:19.013Z,97982.69
2019-02-08T03:50:22.513Z,97983.12
2019-02-08T03:54:25.973Z,97975.79
2019-02-08T03:58:29.421Z,97974.98
2019-02-08T04:02:32.878Z,97972.89
2019-02-08T04:06:36.322Z,97967.66
2019-02-08T04:10:39.785Z,97958.49
2019-02-08T04:14:43.237Z,97954.17
2019-02-08T04:18:46.690Z,97960.59
2019-02-08T04:22:50.142Z,97967.80
2019-02-08T04:26:53.591Z,97965.77
2019-02-08T04:30:57.041Z,97968.45
2019-02-08T04:35:00.574Z,97974.41
2019-02-08T04:39:04.717Z,97976.13
2019-02-08T04:43:08.162Z,97966.53
2019-02-08T04:47:11.618Z,97969.07
2019-02-08T04:51:15.081Z,97965.16
2019-02-08T04:55:18.536Z,97958.17
2019-02-08T04:59:21.996Z,97946.86
2019-02-08T05:03:25.447Z,97954.19
2019-02-08T05:07:28.910Z,97944.23
2019-02-08T05:11:32.368Z,97948.58
2019-02-08T05:15:35.825Z,97950.75
2019-02-08T05:19:39.276Z,97950.30
2019-02-08T05:23:42.720Z,97944.23
2019-02-08T05:27:46.177Z,97942.58
2019-02-08T05:31:49.633Z,97933.52
2019-02-08T05:35:53.107Z,97940.00
2019-02-08T05:39:56.587Z,97942.95
2019-02-08T05:44:00.039Z,97951.17
2019-02-08T05:48:03.497Z,97947.77
2019-02-08T05:52:06.956Z,97947.02
2019-02-08T05:56:10.411Z,97947.19
2019-02-08T06:00:14.019Z,97942.64
2019-02-08T06:04:17.461Z,97929.06
2019-02-08T06:08:20.915Z,97942.61
2019-02-08T06:12:24.845Z,97939.78
2019-02-08T06:16:28.305Z,97941.52
2019-02-08T06:20:31.765Z,97946.34
2019-02-08T06:24:35.222Z,97939.86
2019-02-08T06:28:38.682Z,97939.44
2019-02-08T06:32:42.147Z,97942.44
2019-02-08T06:36:45.606Z,97951.39
2019-02-08T06:40:49.057Z,97961.18
2019-02-08T06:44:52.507Z,97966.23
2019-02-08T06:48:55.963Z,97966.98
2019-02-08T06:52:59.418Z,97966.43
2019-02-08T06:57:04.526Z,97971.73
2019-02-08T07:01:09.617Z,97974.16
2019-02-08T07:05:20.496Z,97974.06
2019-02-08T07:09:31.577Z,97971.41
2019-02-08T07:13:42.629Z,97969.10
2019-02-08T07:17:47.722Z,97976.34
2019-02-08T07:22:04.828Z,97976.63
2019-02-08T07:26:09.918Z,97984.30
2019-02-08T07:30:15.018Z,97992.79
2019-02-08T07:34:26.036Z,97993.48
2019-02-08T07:38:31.142Z,97992.12
2019-02-08T07:42:48.191Z,97989.91
2019-02-08T07:47:02.095Z,97990.60
2019-02-08T07:51:10.153Z,97990.08
2019-02-08T07:55:15.263Z,97988.59
2019-02-08T07:59:23.465Z,97998.79
2019-02-08T08:03:46.750Z,97992.98
2019-02-08T08:07:57.761Z,98002.03
2019-02-08T08:12:02.869Z,97999.31
2019-02-08T08:16:23.199Z,97990.98
2019-02-08T08:20:28.304Z,97999.14
2019-02-08T08:24:45.727Z,97969.56
2019-02-08T08:29:02.831Z,97982.82
2019-02-08T08:33:07.579Z,97970.58
2019-02-08T08:37:11.028Z,97970.45
2019-02-08T08:41:14.484Z,97978.25
2019-02-08T08:45:17.947Z,97975.41
2019-02-08T08:49:21.402Z,97975.52
2019-02-08T08:53:24.863Z,97973.80
2019-02-08T08:57:28.327Z,97977.34
2019-02-08T09:01:31.801Z,97963.09
2019-02-08T09:05:35.272Z,97968.89
2019-02-08T09:09:38.793Z,97971.07
2019-02-08T09:13:42.199Z,97966.63
2019-02-08T09:17:45.655Z,97968.63
2019-02-08T09:21:49.121Z,97974.14
2019-02-08T09:25:52.581Z,97961.09
2019-02-08T09:29:56.043Z,97962.39
2019-02-08T09:33:59.493Z,97975.78
2019-02-08T09:38:02.952Z,97972.80
2019-02-08T09:42:06.406Z,97965.80
2019-02-08T09:46:09.872Z,97960.80
2019-02-08T09:50:13.349Z,97957.20
2019-02-08T09:54:16.812Z,97953.66
2019-02-08T09:58:20.264Z,97954.11
2019-02-08T10:02:23.751Z,97956.79
2019-02-08T10:06:27.188Z,97959.06
2019-02-08T10:10:30.643Z,97948.11
2019-02-08T10:14:34.106Z,97944.01
2019-02-08T10:18:37.607Z,97941.52
2019-02-08T10:22:41.021Z,97938.77
2019-02-08T10:26:44.487Z,97943.00
2019-02-08T10:30:47.953Z,97934.75
2019-02-08T10:34:51.417Z,97933.25
2019-02-08T10:38:54.876Z,97933.63
2019-02-08T10:42:58.344Z,97923.61
2019-02-08T10:47:01.803Z,97934.63
2019-02-08T10:51:05.252Z,97934.58
2019-02-08T10:55:08.707Z,97929.63
2019-02-08T10:59:12.174Z,97928.33
2019-02-08T11:03:15.632Z,97930.05
2019-02-08T11:07:19.090Z,97926.75
2019-02-08T11:11:23.063Z,97928.22
2019-02-08T11:15:26.564Z,97926.06
2019-02-08T11:19:30.020Z,97923.36
2019-02-08T11:23:33.476Z,97922.03
2019-02-08T11:27:36.940Z,97919.42
2019-02-08T11:31:40.392Z,97901.86
2019-02-08T11:35:43.853Z,97900.41
2019-02-08T11:39:47.308Z,97893.60
2019-02-08T11:43:50.780Z,97890.14
2019-02-08T11:47:54.232Z,97887.92
2019-02-08T11:51:57.753Z,97884.27
2019-02-08T11:56:01.224Z,97879.48
2019-02-08T12:00:04.679Z,97863.19
2019-02-08T12:04:08.825Z,97861.98
2019-02-08T12:08:13.347Z,97862.75
2019-02-08T12:12:16.801Z,97850.21
2019-02-08T12:16:20.263Z,97848.02
2019-02-08T12:20:23.731Z,97840.88
2019-02-08T12:24:27.194Z,97825.63
2019-02-08T12:28:31.831Z,97815.02
2019-02-08T12:32:35.480Z,97806.91
2019-02-08T12:36:38.940Z,97802.25
2019-02-08T12:40:42.397Z,97799.97
2019-02-08T12:44:45.850Z,97793.66
2019-02-08T12:48:49.318Z,97784.64
2019-02-08T12:52:52.780Z,97794.22
2019-02-08T12:56:56.254Z,97791.86
2019-02-08T13:00:59.714Z,97792.14
2019-02-08T13:05:03.187Z,97796.08
2019-02-08T13:09:06.651Z,97779.29
2019-02-08T13:13:10.106Z,97768.80
2019-02-08T13:17:13.563Z,97751.73
2019-02-08T13:21:17.025Z,97747.86
2019-02-08T13:25:20.513Z,97744.59
2019-02-08T13:29:23.975Z,97734.17
2019-02-08T13:33:27.453Z,97736.00
2019-02-08T13:37:30.901Z,97733.50
2019-02-08T13:41:34.368Z,97727.27
2019-02-08T13:45:37.813Z,97726.03
2019-02-08T13:49:41.274Z,97725.50
2019-02-08T13:53:44.766Z,97721.83
2019-02-08T13:57:48.226Z,97714.74
2019-02-08T14:01:51.698Z,97712.73
2019-02-08T14:05:55.153Z,97707.11
2019-02-08T14:09:58.608Z,97700.91
2019-02-08T14:14:02.625Z,97689.94
2019-02-08T14:18:06.106Z,97695.60
2019-02-08T14:22:09.548Z,97701.15
2019-02-08T14:26:13.963Z,97700.06
2019-02-08T14:30:17.434Z,97701.61
2019-02-08T14:34:20.894Z,97695.34
2019-02-08T14:38:24.344Z,97699.94
2019-02-08T14:42:27.806Z,97682.09
2019-02-08T14:46:31.250Z,97688.33
2019-02-08T14:50:34.707Z,97686.16
2019-02-08T14:54:38.167Z,97682.75
2019-02-08T14:58:41.631Z,97677.17
2019-02-08T15:02:45.096Z,97679.58
2019-02-08T15:06:48.544Z,97678.19
2019-02-08T15:10:51.999Z,97670.53
2019-02-08T15:14:55.461Z,97683.48
2019-02-08T15:18:58.917Z,97676.52
2019-02-08T15:23:02.378Z,97680.80
2019-02-08T15:27:05.825Z,97665.23
2019-02-08T15:31:09.355Z,97662.22
2019-02-08T15:35:12.818Z,97655.58
2019-02-08T15:39:16.288Z,97649.85
2019-02-08T15:43:19.741Z,97653.48
2019-02-08T15:47:23.186Z,97641.98
2019-02-08T15:51:26.637Z,97643.17
2019-02-08T15:55:30.095Z,97640.63
2019-02-08T15:59:33.555Z,97623.89
2019-02-08T16:03:37.056Z,97621.02
2019-02-08T16:07:40.452Z,97624.81
2019-02-08T16:11:43.905Z,97619.77
2019-02-08T16:15:47.357Z,97619.07
2019-02-08T16:19:50.807Z,97610.39
2019-02-08T16:23:54.263Z,97605.26
2019-02-08T16:27:57.699Z,97601.22
2019-02-08T16:32:01.163Z,97599.42
2019-02-08T16:36:04.618Z,97576.86
2019-02-08T16:40:08.143Z,97572.27
2019-02-08T16:44:11.624Z,97554.23
2019-02-08T16:48:15.081Z,97560.14
2019-02-08T16:52:18.546Z,97547.19
2019-02-08T16:56:21.995Z,97546.41
2019-02-08T17:00:25.470Z,97536.93
2019-02-08T17:04:28.892Z,97524.47
2019-02-08T17:08:32.347Z,97530.70
2019-02-08T17:12:35.800Z,97527.48
2019-02-08T17:16:39.260Z,97524.64
2019-02-08T17:20:42.713Z,97517.44
2019-02-08T17:24:46.150Z,97513.66
2019-02-08T17:28:49.611Z,97496.88
2019-02-08T17:32:53.071Z,97491.03
2019-02-08T17:36:56.516Z,97490.17
2019-02-08T17:40:59.974Z,97491.92
2019-02-08T17:45:03.412Z,97489.31
2019-02-08T17:49:06.872Z,97485.94
2019-02-08T17:53:11.292Z,97490.57
2019-02-08T17:57:14.757Z,97478.16
2019-02-08T18:01:18.212Z,97470.72
2019-02-08T18:05:21.658Z,97472.26
2019-02-08T18:09:25.119Z,97473.00
2019-02-08T18:13:28.693Z,97475.84
2019-02-08T18:17:32.152Z,97468.72
2019-02-08T18:21:35.592Z,97462.13
2019-02-08T18:25:39.055Z,97460.91
2019-02-08T18:29:42.516Z,97455.01
2019-02-08T18:33:46.866Z,97442.93
2019-02-08T18:37:50.405Z,97448.59
2019-02-08T18:41:53.849Z,97436.09
2019-02-08T18:45:57.306Z,97438.33
2019-02-08T18:50:00.761Z,97435.00
2019-02-08T18:54:05.300Z,97440.20
2019-02-08T18:58:08.754Z,97423.41
2019-02-08T19:02:12.198Z,97432.23
2019-02-08T19:06:15.647Z,97419.70
2019-02-08T19:10:19.105Z,97412.79
2019-02-08T19:14:22.559Z,97389.52
2019-02-08T19:18:26.012Z,97396.59
2019-02-08T19:22:29.464Z,97388.39
2019-02-08T19:26:32.915Z,97384.16
2019-02-08T19:30:36.366Z,97380.20
2019-02-08T19:34:39.830Z,97375.69
2019-02-08T19:38:43.268Z,97378.17
2019-02-08T19:42:46.905Z,97371.05
2019-02-08T19:46:50.267Z,97358.36
2019-02-08T19:50:53.750Z,97359.57
2019-02-08T19:54:57.188Z,97348.58
2019-02-08T19:59:00.628Z,97333.17
2019-02-08T20:03:04.090Z,97334.95
2019-02-08T20:07:07.542Z,97333.22
2019-02-08T20:11:11.012Z,97320.25
2019-02-08T20:15:14.471Z,97309.14
2019-02-08T20:19:17.927Z,97316.06
2019-02-08T20:23:22.365Z,97306.00
2019-02-08T20:27:25.827Z,97310.87
2019-02-08T20:31:29.291Z,97300.83
2019-02-08T20:35:32.744Z,97285.79
2019-02-08T20:39:36.194Z,97280.26
2019-02-08T20:43:39.647Z,97270.79
2019-02-08T20:47:43.103Z,97267.78
2019-02-08T20:51:46.555Z,97270.97
2019-02-08T20:55:52.302Z,97270.20
2019-02-08T20:59:56.823Z,97269.39
2019-02-08T21:04:00.290Z,97269.79
2019-02-08T21:08:03.759Z,97266.39
2019-02-08T21:12:07.225Z,97269.22
2019-02-08T21:16:10.684Z,97248.93
2019-02-08T21:20:14.125Z,97252.92
2019-02-08T21:24:17.586Z,97245.28
2019-02-08T21:28:21.040Z,97248.78
2019-02-08T21:32:24.509Z,97246.63
2019-02-08T21:36:27.965Z,97231.06
2019-02-08T21:40:31.460Z,97239.32
2019-02-08T21:44:34.922Z,97217.72
2019-02-08T21:48:38.322Z,97218.63
2019-02-08T21:52:41.775Z,97214.31
2019-02-08T21:56:45.220Z,97209.06
2019-02-08T22:00:48.678Z,97206.91
2019-02-08T22:04:52.143Z,97199.90
2019-02-08T22:08:55.602Z,97204.98
2019-02-08T22:12:59.056Z,97191.45
2019-02-08T22:17:02.501Z,97175.94
2019-02-08T22:21:05.952Z,97178.04
2019-02-08T22:25:09.435Z,97177.14
2019-02-08T22:29:14.120Z,97164.80
2019-02-08T22:33:17.803Z,97143.08
2019-02-08T22:37:21.243Z,97147.22
2019-02-08T22:41:24.694Z,97135.69
2019-02-08T22:45:28.145Z,97136.72
2019-02-08T22:49:31.599Z,97138.16
2019-02-08T22:53:36.038Z,97122.53
2019-02-08T22:57:39.479Z,97106.12
2019-02-08T23:01:42.936Z,97107.95
2019-02-08T23:05:46.384Z,97088.09
2019-02-08T23:09:49.841Z,97072.52
2019-02-08T23:13:53.282Z,97069.16
2019-02-08T23:17:56.737Z,97058.08
2019-02-08T23:22:00.182Z,97043.91
2019-02-08T23:26:03.648Z,97050.83
2019-02-08T23:30:07.099Z,97051.23
2019-02-08T23:34:10.543Z,97045.81
2019-02-08T23:38:14.000Z,97051.20
2019-02-08T23:42:18.519Z,97034.02
2019-02-08T23:46:21.973Z,97015.95
2019-02-08T23:50:26.593Z,96996.98
2019-02-08T23:54:30.043Z,97005.91
2019-02-08T23:58:33.491Z,97000.71
